createdAt,value
2019-05-17T00:00:28.396Z,8.10
2019-05-17T00:02:57.015Z,8.10
2019-05-17T00:05:22.456Z,8.10
2019-05-17T00:08:38.486Z,8.10
2019-05-17T00:11:06.649Z,8.10
2019-05-17T00:13:32.676Z,8.00
2019-05-17T00:16:00.467Z,8.10
2019-05-17T00:18:26.593Z,8.00
2019-05-17T00:20:52.652Z,8.10
2019-05-17T00:23:20.299Z,8.10
2019-05-17T00:25:46.956Z,8.10
2019-05-17T00:28:13.201Z,8.10
2019-05-17T00:30:39.541Z,8.00
2019-05-17T00:33:07.800Z,8.00
2019-05-17T00:35:33.725Z,7.90
2019-05-17T00:37:59.793Z,7.90
2019-05-17T00:40:27.025Z,7.80
2019-05-17T00:42:53.203Z,7.80
2019-05-17T00:45:19.277Z,7.70
2019-05-17T00:47:46.803Z,7.70
2019-05-17T00:50:13.804Z,7.80
2019-05-17T00:52:39.844Z,7.80
2019-05-17T00:55:07.123Z,7.80
2019-05-17T00:57:33.156Z,7.70
2019-05-17T00:59:59.243Z,7.80
2019-05-17T01:02:27.024Z,7.80
2019-05-17T01:04:53.262Z,7.80
2019-05-17T01:07:19.351Z,7.70
2019-05-17T01:09:47.244Z,7.80
2019-05-17T01:12:16.433Z,7.80
2019-05-17T01:14:42.680Z,7.80
2019-05-17T01:17:08.743Z,7.80
2019-05-17T01:19:36.510Z,7.80
2019-05-17T01:22:02.866Z,7.80
2019-05-17T01:24:28.903Z,7.90
2019-05-17T01:26:57.266Z,7.90
2019-05-17T01:29:26.744Z,8.00
2019-05-17T01:31:52.906Z,8.00
2019-05-17T01:34:18.972Z,8.00
2019-05-17T01:36:46.428Z,7.90
2019-05-17T01:39:17.902Z,7.90
2019-05-17T01:41:41.881Z,8.00
2019-05-17T01:44:07.941Z,8.00
2019-05-17T01:46:33.973Z,8.00
2019-05-17T01:49:00.014Z,8.10
2019-05-17T01:51:26.400Z,8.10
2019-05-17T01:53:52.684Z,8.10
2019-05-17T01:56:18.736Z,8.10
2019-05-17T01:58:46.832Z,8.10
2019-05-17T02:01:12.731Z,8.00
2019-05-17T02:03:38.815Z,8.10
2019-05-17T02:06:07.235Z,8.00
2019-05-17T02:08:32.814Z,8.00
2019-05-17T02:10:59.179Z,8.00
2019-05-17T02:13:27.223Z,8.00
2019-05-17T02:15:53.267Z,8.00
2019-05-17T02:18:19.887Z,8.00
2019-05-17T02:20:46.433Z,8.00
2019-05-17T02:23:12.596Z,8.00
2019-05-17T02:25:39.033Z,8.00
2019-05-17T02:28:05.100Z,8.10
2019-05-17T02:30:33.744Z,8.10
2019-05-17T02:32:59.230Z,8.00
2019-05-17T02:35:25.309Z,8.00
2019-05-17T02:37:53.453Z,8.00
2019-05-17T02:40:22.523Z,8.00
2019-05-17T02:42:47.882Z,8.00
2019-05-17T02:45:14.257Z,8.10
2019-05-17T02:47:43.528Z,8.00
2019-05-17T02:50:08.648Z,8.00
2019-05-17T02:52:34.710Z,8.10
2019-05-17T02:55:04.056Z,8.10
2019-05-17T02:57:30.138Z,8.00
2019-05-17T02:59:56.602Z,8.00
2019-05-17T03:02:27.044Z,8.00
2019-05-17T03:04:52.635Z,8.00
2019-05-17T03:07:18.654Z,8.10
2019-05-17T03:09:45.050Z,8.00
2019-05-17T03:12:12.982Z,8.00
2019-05-17T03:14:39.212Z,8.10
2019-05-17T03:17:05.469Z,8.00
2019-05-17T03:19:32.717Z,8.10
2019-05-17T03:22:04.181Z,8.10
2019-05-17T03:24:27.295Z,8.10
2019-05-17T03:26:53.959Z,8.00
2019-05-17T03:29:22.726Z,8.10
2019-05-17T03:31:58.027Z,8.10
2019-05-17T03:34:25.845Z,8.00
2019-05-17T03:36:48.711Z,8.00
2019-05-17T03:39:16.271Z,8.00
2019-05-17T03:41:42.997Z,8.10
2019-05-17T03:44:09.199Z,8.00
2019-05-17T03:46:35.848Z,8.00
2019-05-17T03:49:03.869Z,8.10
2019-05-17T03:51:33.287Z,8.10
2019-05-17T03:54:02.126Z,8.10
2019-05-17T03:56:27.251Z,8.10
2019-05-17T03:58:53.344Z,8.10
2019-05-17T04:01:19.464Z,8.10
2019-05-17T04:03:45.492Z,8.10
2019-05-17T04:06:13.286Z,8.10
2019-05-17T04:08:42.234Z,8.10
2019-05-17T04:11:22.426Z,8.00
2019-05-17T04:13:36.315Z,8.00
2019-05-17T04:16:08.403Z,8.00
2019-05-17T04:18:33.596Z,8.00
2019-05-17T04:20:59.289Z,8.00
2019-05-17T04:23:25.329Z,8.00
2019-05-17T04:25:53.179Z,8.10
2019-05-17T04:28:22.630Z,8.10
2019-05-17T04:30:47.273Z,8.10
2019-05-17T04:33:13.413Z,8.10
2019-05-17T04:35:43.000Z,8.10
2019-05-17T04:38:07.524Z,8.10
2019-05-17T04:40:34.292Z,8.10
2019-05-17T04:43:02.980Z,8.10
2019-05-17T04:45:28.464Z,8.10
2019-05-17T04:47:54.576Z,8.10
2019-05-17T04:50:23.140Z,8.10
2019-05-17T04:52:48.631Z,8.00
2019-05-17T04:55:14.834Z,8.00
2019-05-17T04:57:43.735Z,8.00
2019-05-17T05:00:12.903Z,8.10
2019-05-17T05:02:38.702Z,8.10
2019-05-17T05:05:05.888Z,8.00
2019-05-17T05:07:33.539Z,8.00
2019-05-17T05:10:02.805Z,8.10
2019-05-17T05:12:27.871Z,8.10
2019-05-17T05:14:53.945Z,8.00
2019-05-17T05:17:22.147Z,8.10
2019-05-17T05:19:47.950Z,8.10
2019-05-17T05:22:17.384Z,8.00
2019-05-17T05:24:42.399Z,8.10
2019-05-17T05:27:08.546Z,8.10
2019-05-17T05:29:35.046Z,8.10
2019-05-17T05:32:02.688Z,8.10
2019-05-17T05:34:28.915Z,8.20
2019-05-17T05:36:55.084Z,8.20
2019-05-17T05:39:22.829Z,8.20
2019-05-17T05:41:49.823Z,8.30
2019-05-17T05:44:17.325Z,8.20
2019-05-17T05:46:43.372Z,8.40
2019-05-17T05:49:09.422Z,8.30
2019-05-17T05:51:35.458Z,8.30
2019-05-17T05:54:01.794Z,8.40
2019-05-17T05:56:27.980Z,8.40
2019-05-17T05:58:54.537Z,8.40
2019-05-17T06:01:21.962Z,8.50
2019-05-17T06:03:48.197Z,8.50
2019-05-17T06:06:15.663Z,8.40
2019-05-17T06:08:41.806Z,8.40
2019-05-17T06:11:08.948Z,8.50
2019-05-17T06:13:35.123Z,8.40
2019-05-17T06:16:02.632Z,8.40
2019-05-17T06:18:29.078Z,8.40
2019-05-17T06:20:55.115Z,8.40
2019-05-17T06:23:23.642Z,8.40
2019-05-17T06:25:52.237Z,8.40
2019-05-17T06:28:18.413Z,8.40
2019-05-17T06:30:45.033Z,8.40
2019-05-17T06:33:13.371Z,8.50
2019-05-17T06:35:42.313Z,8.50
2019-05-17T06:38:08.760Z,8.50
2019-05-17T06:44:14.818Z,8.70
2019-05-17T06:46:41.805Z,8.70
2019-05-17T06:49:08.538Z,8.80
2019-05-17T06:51:34.678Z,8.80
2019-05-17T06:54:01.805Z,8.80
2019-05-17T06:56:28.391Z,8.90
2019-05-17T06:58:56.518Z,8.90
2019-05-17T07:01:23.316Z,9.00
2019-05-17T07:03:49.591Z,9.00
2019-05-17T07:06:17.578Z,9.20
2019-05-17T07:08:43.694Z,9.30
2019-05-17T07:11:09.901Z,9.30
2019-05-17T07:13:36.123Z,9.40
2019-05-17T07:16:02.206Z,9.50
2019-05-17T07:18:30.099Z,9.70
2019-05-17T07:20:56.219Z,9.70
2019-05-17T07:23:22.255Z,9.70
2019-05-17T07:25:50.340Z,9.70
2019-05-17T07:28:19.783Z,9.70
2019-05-17T07:30:45.304Z,9.80
2019-05-17T07:33:11.351Z,9.90
2019-05-17T07:35:39.710Z,10.00
2019-05-17T07:38:06.653Z,10.10
2019-05-17T07:40:33.081Z,10.20
2019-05-17T07:43:09.754Z,10.30
2019-05-17T07:45:29.437Z,10.30
2019-05-17T07:47:55.151Z,10.40
2019-05-17T07:50:22.308Z,10.40
2019-05-17T07:52:49.968Z,10.50
2019-05-17T07:55:16.284Z,10.50
2019-05-17T07:57:42.365Z,10.50
2019-05-17T08:00:10.328Z,10.60
2019-05-17T08:02:36.693Z,10.70
2019-05-17T08:05:10.028Z,10.70
2019-05-17T08:07:35.904Z,10.80
2019-05-17T08:10:04.381Z,10.80
2019-05-17T08:12:30.685Z,10.80
2019-05-17T08:14:59.693Z,10.90
2019-05-17T08:17:25.521Z,11.00
2019-05-17T08:19:51.595Z,11.00
2019-05-17T08:22:20.017Z,11.10
2019-05-17T08:24:45.962Z,11.10
2019-05-17T08:27:12.030Z,11.20
2019-05-17T08:29:40.280Z,11.30
2019-05-17T08:32:09.499Z,11.40
2019-05-17T08:34:35.288Z,11.50
2019-05-17T08:37:01.330Z,11.50
2019-05-17T08:39:27.404Z,11.50
2019-05-17T08:41:53.455Z,11.50
2019-05-17T08:44:19.474Z,11.60
2019-05-17T08:46:46.074Z,11.60
2019-05-17T08:49:12.093Z,11.70
2019-05-17T08:51:39.680Z,11.80
2019-05-17T08:54:05.920Z,11.90
2019-05-17T08:56:31.956Z,12.00
2019-05-17T08:59:00.524Z,12.00
2019-05-17T09:01:25.971Z,12.00
2019-05-17T09:03:52.098Z,12.00
2019-05-17T09:06:19.877Z,12.00
2019-05-17T09:08:46.085Z,12.00
2019-05-17T09:11:12.966Z,12.00
2019-05-17T09:13:41.234Z,12.00
2019-05-17T09:16:10.697Z,12.00
2019-05-17T09:18:36.730Z,12.00
2019-05-17T09:21:03.025Z,12.10
2019-05-17T09:23:30.716Z,12.00
2019-05-17T09:25:56.755Z,12.00
2019-05-17T09:28:22.834Z,11.90
2019-05-17T09:30:50.750Z,12.00
2019-05-17T09:33:19.132Z,12.00
2019-05-17T09:35:44.755Z,12.10
2019-05-17T09:38:10.834Z,12.20
2019-05-17T09:40:36.888Z,12.40
2019-05-17T09:43:02.987Z,12.40
2019-05-17T09:45:30.618Z,12.60
2019-05-17T09:47:56.897Z,12.80
2019-05-17T09:50:23.032Z,12.70
2019-05-17T09:52:49.614Z,12.70
2019-05-17T09:55:15.768Z,12.70
2019-05-17T09:57:41.837Z,12.70
2019-05-17T10:00:09.930Z,12.80
2019-05-17T10:02:36.296Z,12.80
2019-05-17T10:05:05.790Z,12.80
2019-05-17T10:07:31.905Z,12.80
2019-05-17T10:09:59.712Z,12.80
2019-05-17T10:12:26.066Z,12.80
2019-05-17T10:14:52.103Z,12.80
2019-05-17T10:17:21.020Z,12.80
2019-05-17T10:19:46.747Z,12.90
2019-05-17T10:22:12.827Z,13.10
2019-05-17T10:24:42.104Z,13.10
2019-05-17T10:27:06.824Z,13.20
2019-05-17T10:29:32.862Z,13.20
2019-05-17T10:31:59.883Z,13.20
2019-05-17T10:34:26.107Z,13.30
2019-05-17T10:36:52.125Z,13.20
2019-05-17T10:39:19.350Z,13.20
2019-05-17T10:41:46.977Z,13.20
2019-05-17T10:44:12.999Z,13.20
2019-05-17T10:46:40.715Z,13.30
2019-05-17T10:49:06.991Z,13.30
2019-05-17T10:51:33.071Z,13.30
2019-05-17T10:53:59.926Z,13.30
2019-05-17T10:56:26.137Z,13.40
2019-05-17T10:58:52.198Z,13.50
2019-05-17T11:01:20.032Z,13.60
2019-05-17T11:03:46.198Z,13.80
2019-05-17T11:06:12.755Z,13.90
2019-05-17T11:08:44.641Z,13.90
2019-05-17T11:11:10.968Z,14.00
2019-05-17T11:13:37.062Z,14.00
2019-05-17T11:16:03.077Z,14.10
2019-05-17T11:18:29.895Z,14.10
2019-05-17T11:20:56.016Z,14.10
2019-05-17T11:23:23.271Z,14.10
2019-05-17T11:25:49.438Z,14.20
2019-05-17T11:28:15.558Z,14.20
2019-05-17T11:30:43.184Z,14.10
2019-05-17T11:33:09.358Z,14.10
2019-05-17T11:35:35.417Z,14.10
2019-05-17T11:38:02.586Z,14.10
2019-05-17T11:40:29.758Z,14.10
2019-05-17T11:42:56.032Z,14.10
2019-05-17T11:45:28.045Z,14.10
2019-05-17T11:47:51.546Z,14.10
2019-05-17T11:50:17.966Z,14.10
2019-05-17T11:52:43.995Z,14.10
2019-05-17T11:55:11.077Z,14.20
2019-05-17T11:57:37.153Z,14.20
2019-05-17T12:00:07.868Z,14.20
2019-05-17T12:02:33.909Z,14.30
2019-05-17T12:05:00.521Z,14.40
2019-05-17T12:07:27.324Z,14.50
2019-05-17T12:09:53.660Z,14.60
2019-05-17T12:12:19.684Z,14.60
2019-05-17T12:14:45.740Z,14.60
2019-05-17T12:17:11.830Z,14.70
2019-05-17T12:19:38.522Z,14.70
2019-05-17T12:22:04.608Z,14.70
2019-05-17T12:24:30.678Z,14.80
2019-05-17T12:26:56.775Z,14.90
2019-05-17T12:29:23.465Z,14.90
2019-05-17T12:31:50.586Z,15.00
2019-05-17T12:34:16.705Z,15.00
2019-05-17T12:36:43.652Z,14.90
2019-05-17T12:39:10.825Z,14.80
2019-05-17T12:41:36.848Z,14.80
2019-05-17T12:44:03.674Z,14.80
2019-05-17T12:46:29.693Z,14.90
2019-05-17T12:48:55.818Z,14.80
2019-05-17T12:51:21.937Z,15.00
2019-05-17T12:53:48.057Z,15.10
2019-05-17T12:56:14.107Z,15.30
2019-05-17T12:58:40.249Z,15.50
2019-05-17T13:01:06.450Z,15.60
2019-05-17T13:03:32.581Z,15.90
2019-05-17T13:05:58.631Z,16.10
2019-05-17T13:08:24.812Z,16.20
2019-05-17T13:10:51.200Z,16.10
2019-05-17T13:13:17.369Z,16.10
2019-05-17T13:15:43.412Z,16.20
2019-05-17T13:18:09.720Z,16.20
2019-05-17T13:20:35.770Z,16.40
2019-05-17T13:23:02.092Z,16.70
2019-05-17T13:25:28.495Z,16.90
2019-05-17T13:27:54.683Z,16.80
2019-05-17T13:30:20.998Z,16.90
2019-05-17T13:32:47.886Z,16.90
2019-05-17T13:35:14.542Z,16.80
2019-05-17T13:37:40.619Z,16.70
2019-05-17T13:40:07.264Z,16.70
2019-05-17T13:42:33.325Z,16.90
2019-05-17T13:44:59.353Z,17.00
2019-05-17T13:47:25.389Z,17.20
2019-05-17T13:49:51.446Z,17.30
2019-05-17T13:52:17.514Z,17.20
2019-05-17T13:54:44.289Z,17.00
2019-05-17T13:57:11.462Z,16.90
2019-05-17T13:59:37.739Z,16.80
2019-05-17T14:02:03.778Z,16.90
2019-05-17T14:04:29.876Z,16.90
2019-05-17T14:06:56.027Z,16.80
2019-05-17T14:09:22.072Z,16.70
2019-05-17T14:11:48.190Z,16.60
2019-05-17T14:14:14.359Z,16.60
2019-05-17T14:16:40.620Z,16.60
2019-05-17T14:19:06.772Z,16.70
2019-05-17T14:21:32.965Z,16.90
2019-05-17T14:23:59.192Z,17.00
2019-05-17T14:26:25.604Z,17.10
2019-05-17T14:28:52.167Z,17.30
2019-05-17T14:31:19.844Z,17.40
2019-05-17T14:33:46.263Z,17.30
2019-05-17T14:36:12.284Z,17.40
2019-05-17T14:38:38.402Z,17.50
2019-05-17T14:41:07.442Z,17.30
2019-05-17T14:43:36.393Z,16.90
2019-05-17T14:46:04.698Z,16.70
2019-05-17T14:48:32.132Z,16.50
2019-05-17T14:51:01.372Z,16.40
2019-05-17T14:53:27.955Z,16.40
2019-05-17T14:55:53.980Z,16.60
2019-05-17T14:58:20.081Z,16.90
2019-05-17T15:00:46.290Z,17.10
2019-05-17T15:03:12.473Z,17.40
2019-05-17T15:05:38.597Z,17.50
2019-05-17T15:08:04.626Z,17.60
2019-05-17T15:10:30.726Z,17.70
2019-05-17T15:13:01.623Z,17.70
2019-05-17T15:15:28.246Z,17.50
2019-05-17T15:17:54.546Z,17.50
2019-05-17T15:20:21.564Z,17.50
2019-05-17T15:22:47.726Z,17.30
2019-05-17T15:25:13.804Z,17.40
2019-05-17T15:27:45.384Z,17.40
2019-05-17T15:30:11.791Z,17.40
2019-05-17T15:32:37.822Z,17.40
2019-05-17T15:35:06.934Z,17.40
2019-05-17T15:37:34.134Z,17.40
2019-05-17T15:40:02.045Z,17.30
2019-05-17T15:42:41.883Z,17.10
2019-05-17T15:44:58.912Z,17.10
2019-05-17T15:47:25.137Z,17.00
2019-05-17T15:49:55.451Z,16.90
2019-05-17T15:52:28.982Z,16.70
2019-05-17T15:54:55.208Z,16.70
2019-05-17T15:57:21.459Z,16.80
2019-05-17T15:59:50.333Z,17.10
2019-05-17T16:02:17.662Z,17.30
2019-05-17T16:04:43.690Z,17.40
2019-05-17T16:07:09.812Z,17.50
2019-05-17T16:09:35.851Z,17.60
2019-05-17T16:12:01.960Z,17.80
2019-05-17T16:14:29.280Z,17.70
2019-05-17T16:27:19.980Z,17.10
2019-05-17T16:29:46.019Z,17.10
2019-05-17T16:32:12.107Z,17.00
2019-05-17T16:34:39.200Z,17.00
2019-05-17T16:37:05.728Z,17.00
2019-05-17T16:39:31.848Z,17.10
2019-05-17T16:41:57.880Z,17.20
2019-05-17T16:44:25.688Z,17.40
2019-05-17T16:46:51.980Z,17.40
2019-05-17T16:49:18.551Z,17.20
2019-05-17T16:51:44.851Z,17.10
2019-05-17T16:54:12.401Z,16.80
2019-05-17T16:56:38.838Z,16.70
2019-05-17T16:59:06.980Z,16.50
2019-05-17T17:01:34.670Z,16.40
2019-05-17T17:04:00.876Z,16.40
2019-05-17T17:06:26.916Z,16.40
2019-05-17T17:08:53.141Z,16.30
2019-05-17T17:11:27.756Z,16.30
2019-05-17T17:13:56.340Z,16.20
2019-05-17T17:16:22.373Z,16.20
2019-05-17T17:18:48.411Z,16.20
2019-05-17T17:21:31.512Z,16.10
2019-05-17T17:23:57.704Z,16.20
2019-05-17T17:26:35.027Z,16.00
2019-05-17T17:29:08.335Z,16.00
2019-05-17T17:31:34.447Z,16.00
2019-05-17T17:34:01.594Z,16.00
2019-05-17T17:42:08.520Z,15.80
2019-05-17T17:44:35.955Z,15.70
2019-05-17T17:47:02.006Z,15.60
2019-05-17T17:49:28.232Z,15.70
2019-05-17T17:51:54.398Z,15.50
2019-05-17T17:54:20.572Z,15.50
2019-05-17T17:56:46.620Z,15.40
2019-05-17T17:59:12.798Z,15.40
2019-05-17T18:01:38.819Z,15.30
2019-05-17T18:04:04.964Z,15.30
2019-05-17T18:06:31.700Z,15.20
2019-05-17T18:08:57.740Z,15.20
2019-05-17T18:11:23.860Z,15.20
2019-05-17T18:14:13.462Z,15.10
2019-05-17T18:16:45.082Z,15.20
2019-05-17T18:19:11.211Z,15.10
2019-05-17T18:21:37.829Z,15.10
2019-05-17T18:24:16.228Z,15.10
2019-05-17T18:29:34.930Z,14.90
2019-05-17T18:32:01.062Z,14.80
2019-05-17T18:34:27.199Z,14.70
2019-05-17T18:36:53.246Z,14.60
2019-05-17T18:39:25.568Z,14.60
2019-05-17T18:41:54.414Z,14.50
2019-05-17T18:44:27.911Z,14.40
2019-05-17T18:46:48.547Z,14.40
2019-05-17T18:49:14.695Z,14.40
2019-05-17T18:51:41.039Z,14.20
2019-05-17T18:54:08.679Z,14.20
2019-05-17T18:56:34.718Z,14.10
2019-05-17T18:59:00.984Z,14.10
2019-05-17T19:01:27.555Z,14.10
2019-05-17T19:03:54.999Z,14.00
2019-05-17T19:06:23.878Z,13.90
2019-05-17T19:08:51.347Z,13.80
2019-05-17T19:11:17.640Z,13.80
2019-05-17T19:13:44.530Z,13.70
2019-05-17T19:16:12.187Z,13.70
2019-05-17T19:18:38.327Z,13.60
2019-05-17T19:21:05.303Z,13.60
2019-05-17T19:23:31.838Z,13.50
2019-05-17T19:26:07.675Z,13.50
2019-05-17T19:28:33.892Z,13.40
2019-05-17T19:31:00.007Z,13.50
2019-05-17T19:33:26.140Z,13.50
2019-05-17T19:35:53.705Z,13.40
2019-05-17T19:38:20.559Z,13.30
2019-05-17T19:40:46.608Z,13.30
2019-05-17T19:43:12.890Z,13.20
2019-05-17T19:45:39.201Z,13.20
2019-05-17T19:48:14.828Z,13.20
2019-05-17T19:50:40.888Z,13.20
2019-05-17T19:53:07.123Z,13.10
2019-05-17T19:55:35.391Z,13.00
2019-05-17T19:58:02.876Z,13.00
2019-05-17T20:00:29.022Z,12.90
2019-05-17T20:02:55.065Z,12.90
2019-05-17T20:05:22.910Z,12.90
2019-05-17T20:07:50.729Z,12.90
2019-05-17T20:10:18.402Z,12.80
2019-05-17T20:12:45.247Z,12.80
2019-05-17T20:15:17.682Z,12.70
2019-05-17T20:17:39.740Z,12.70
2019-05-17T20:20:06.767Z,12.60
2019-05-17T20:22:33.124Z,12.50
2019-05-17T20:25:01.167Z,12.50
2019-05-17T20:27:27.416Z,12.40
2019-05-17T20:29:53.480Z,12.30
2019-05-17T20:32:19.582Z,12.30
2019-05-17T20:34:47.435Z,12.20
2019-05-17T20:37:15.130Z,12.20
2019-05-17T20:39:41.211Z,12.10
2019-05-17T20:42:07.956Z,12.10
2019-05-17T20:44:34.184Z,12.10
2019-05-17T20:47:01.219Z,12.10
2019-05-17T20:49:29.092Z,12.10
2019-05-17T20:51:56.498Z,12.00
2019-05-17T20:54:22.681Z,12.00
2019-05-17T20:56:49.639Z,11.90
2019-05-17T20:59:16.048Z,11.80
2019-05-17T21:01:42.180Z,11.90
2019-05-17T21:04:08.837Z,11.90
2019-05-17T21:06:35.148Z,11.90
2019-05-17T21:09:03.072Z,11.90
2019-05-17T21:11:30.764Z,11.80
2019-05-17T21:13:58.501Z,11.80
2019-05-17T21:16:26.161Z,11.70
2019-05-17T21:18:53.252Z,11.60
2019-05-17T21:21:20.370Z,11.50
2019-05-17T21:23:46.751Z,11.50
2019-05-17T21:26:12.819Z,11.40
2019-05-17T21:28:38.974Z,11.30
2019-05-17T21:31:08.026Z,11.30
2019-05-17T21:33:33.450Z,11.30
2019-05-17T21:35:59.848Z,11.30
2019-05-17T21:38:26.251Z,11.20
2019-05-17T21:40:52.363Z,11.10
2019-05-17T21:43:18.494Z,11.10
2019-05-17T21:45:45.325Z,11.00
2019-05-17T21:48:11.355Z,11.00
2019-05-17T21:50:38.233Z,10.90
2019-05-17T21:53:04.967Z,10.90
2019-05-17T21:55:33.451Z,10.70
2019-05-17T21:58:00.812Z,10.70
2019-05-17T22:00:50.766Z,10.60
2019-05-17T22:03:16.892Z,10.60
2019-05-17T22:05:42.923Z,10.50
2019-05-17T22:08:10.263Z,10.40
2019-05-17T22:10:36.300Z,10.40
2019-05-17T22:13:02.392Z,10.30
2019-05-17T22:15:29.116Z,10.30
2019-05-17T22:17:55.755Z,10.20
2019-05-17T22:20:21.787Z,10.10
2019-05-17T22:22:51.476Z,10.10
2019-05-17T22:25:18.631Z,10.10
2019-05-17T22:27:46.080Z,10.10
2019-05-17T22:30:12.317Z,10.10
2019-05-17T22:32:38.467Z,10.00
2019-05-17T22:35:04.736Z,9.90
2019-05-17T22:37:31.928Z,9.90
2019-05-17T22:39:59.075Z,9.80
2019-05-17T22:42:25.111Z,9.80
2019-05-17T22:44:51.155Z,9.70
2019-05-17T22:47:18.343Z,9.70
2019-05-17T22:49:53.919Z,9.60
2019-05-17T22:52:20.667Z,9.60
2019-05-17T22:54:48.755Z,9.40
2019-05-17T22:57:14.866Z,9.40
2019-05-17T22:59:41.260Z,9.40
2019-05-17T23:02:07.875Z,9.40
2019-05-17T23:04:35.655Z,9.30
2019-05-17T23:07:01.689Z,9.30
2019-05-17T23:09:27.766Z,9.20
2019-05-17T23:11:55.051Z,9.20
2019-05-17T23:14:21.243Z,9.10
2019-05-17T23:16:51.405Z,9.10
2019-05-17T23:19:16.967Z,9.00
2019-05-17T23:21:44.370Z,9.00
2019-05-17T23:24:11.072Z,9.00
2019-05-17T23:26:37.171Z,9.00
2019-05-17T23:29:03.936Z,9.00
2019-05-17T23:31:29.966Z,8.90
2019-05-17T23:34:17.850Z,8.90
2019-05-17T23:36:43.920Z,8.90
2019-05-17T23:39:12.268Z,8.70
2019-05-17T23:41:38.316Z,8.60
2019-05-17T23:44:04.422Z,8.60
2019-05-17T23:46:31.839Z,8.60
2019-05-17T23:48:58.542Z,8.50
2019-05-17T23:51:24.612Z,8.50
2019-05-17T23:53:50.699Z,8.50
2019-05-17T23:56:16.732Z,8.40
2019-05-17T23:58:42.771Z,8.40
